Orbital elements of YAOGAN-1 DEB
| Launched | 25 April 2006 |
| Flight ended | – |
| Launch site | Taiyuan Space Center, PRC |
| Owner | People's Republic of China |
| NORAD ID | 36365 |
| Date fetched |
Epoch osculation |
Inc. [°] |
Ecc. | RA asc node [hr] |
Arg Peri. [°] |
Mean anom [°] |
Mean motion [rev/day] |
Abs. mag |
| Date fetched |
Epoch osculation |
Inc. [°] |
Ecc. | RA asc node [hr] |
Arg Peri. [°] |
Mean anom [°] |
Mean motion [rev/day] |
Abs. mag |
| 2026 May 08 17:57 | 2026 May 05 10:59:24 | 97.7623 | 0.00106 | 13.1229 | 349.8128 | 10.2890 | 15.19126 | – |
| 2026 May 07 17:58 | 2026 May 05 10:59:24 | 97.7623 | 0.00106 | 13.1229 | 349.8128 | 10.2890 | 15.19126 | – |
| 2026 May 06 17:57 | 2026 May 05 10:59:24 | 97.7623 | 0.00106 | 13.1229 | 349.8128 | 10.2890 | 15.19126 | – |
| 2026 May 05 17:57 | 2026 May 05 10:59:24 | 97.7623 | 0.00106 | 13.1229 | 349.8128 | 10.2890 | 15.19126 | – |
| 2026 May 04 17:57 | 2026 Apr 30 10:50:13 | 97.7638 | 0.00109 | 12.7800 | 8.3110 | 10.2890 | 15.19126 | – |
| 2026 May 03 17:57 | 2026 Apr 30 10:50:13 | 97.7638 | 0.00109 | 12.7800 | 8.3110 | 10.2890 | 15.19126 | – |
| 2026 May 02 17:57 | 2026 Apr 30 10:50:13 | 97.7638 | 0.00109 | 12.7800 | 8.3110 | 10.2890 | 15.19126 | – |
| 2026 May 01 17:56 | 2026 Apr 30 10:50:13 | 97.7638 | 0.00109 | 12.7800 | 8.3110 | 10.2890 | 15.19126 | – |
| 2026 Apr 30 17:56 | 2026 Apr 30 10:50:13 | 97.7638 | 0.00109 | 12.7800 | 8.3110 | 10.2890 | 15.19126 | – |
| 2026 Apr 29 17:57 | 2026 Apr 24 06:12:22 | 97.7641 | 0.00115 | 12.3559 | 29.8532 | 10.2890 | 15.19126 | – |
| 2026 Apr 28 17:56 | 2026 Apr 24 06:12:22 | 97.7641 | 0.00115 | 12.3559 | 29.8532 | 10.2890 | 15.19126 | – |
| 2026 Apr 27 17:58 | 2026 Apr 24 06:12:22 | 97.7641 | 0.00115 | 12.3559 | 29.8532 | 10.2890 | 15.19126 | – |
| 2026 Apr 26 17:58 | 2026 Apr 24 06:12:22 | 97.7641 | 0.00115 | 12.3559 | 29.8532 | 10.2890 | 15.19126 | – |
| 2026 Apr 25 17:58 | 2026 Apr 24 06:12:22 | 97.7641 | 0.00115 | 12.3559 | 29.8532 | 10.2890 | 15.19126 | – |
| 2026 Apr 24 17:59 | 2026 Apr 24 06:12:22 | 97.7641 | 0.00115 | 12.3559 | 29.8532 | 10.2890 | 15.19126 | – |
| 2026 Apr 23 17:57 | 2026 Apr 19 10:46:01 | 97.7646 | 0.00120 | 12.0266 | 45.6429 | 10.2890 | 15.19126 | – |
| 2026 Apr 22 17:57 | 2026 Apr 19 10:46:01 | 97.7646 | 0.00120 | 12.0266 | 45.6429 | 10.2890 | 15.19126 | – |
| 2026 Apr 21 17:57 | 2026 Apr 19 10:46:01 | 97.7646 | 0.00120 | 12.0266 | 45.6429 | 10.2890 | 15.19126 | – |
| 2026 Apr 20 17:57 | 2026 Apr 19 10:46:01 | 97.7646 | 0.00120 | 12.0266 | 45.6429 | 10.2890 | 15.19126 | – |
| 2026 Apr 19 17:58 | 2026 Apr 19 10:46:01 | 97.7646 | 0.00120 | 12.0266 | 45.6429 | 10.2890 | 15.19126 | – |
| 2026 Apr 18 17:56 | 2026 Apr 13 04:31:36 | 97.7661 | 0.00125 | 11.5981 | 65.3761 | 10.2890 | 15.19126 | – |
| 2026 Apr 16 17:57 | 2026 Apr 13 04:31:36 | 97.7661 | 0.00125 | 11.5981 | 65.3761 | 10.2890 | 15.19126 | – |
| 2026 Apr 14 17:57 | 2026 Apr 13 04:31:36 | 97.7661 | 0.00125 | 11.5981 | 65.3761 | 10.2890 | 15.19126 | – |
| 2026 Apr 13 17:57 | 2026 Apr 13 04:31:36 | 97.7661 | 0.00125 | 11.5981 | 65.3761 | 10.2890 | 15.19126 | – |
| 2026 Apr 12 17:57 | 2026 Apr 08 15:23:54 | 97.7657 | 0.00128 | 11.2869 | 79.4333 | 10.2890 | 15.19126 | – |
| 2026 Apr 11 17:57 | 2026 Apr 08 15:23:54 | 97.7657 | 0.00128 | 11.2869 | 79.4333 | 10.2890 | 15.19126 | – |